sensor_id;sensor_type;location;lat;lon;timestamp;P1;durP1;ratioP1;P2;durP2;ratioP2
58152;SDS011;43967;51.634;5.566;2023-09-07T00:00:58;10.02;;;3.58;;
58152;SDS011;43967;51.634;5.566;2023-09-07T00:06:19;8.43;;;4.13;;
58152;SDS011;43967;51.634;5.566;2023-09-07T00:11:41;8.10;;;3.93;;
58152;SDS011;43967;51.634;5.566;2023-09-07T00:17:02;10.55;;;3.60;;
58152;SDS011;43967;51.634;5.566;2023-09-07T00:22:24;8.50;;;3.63;;
58152;SDS011;43967;51.634;5.566;2023-09-07T00:27:45;9.43;;;3.70;;
58152;SDS011;43967;51.634;5.566;2023-09-07T00:33:07;8.65;;;3.90;;
58152;SDS011;43967;51.634;5.566;2023-09-07T00:38:29;8.27;;;3.60;;
58152;SDS011;43967;51.634;5.566;2023-09-07T00:43:50;8.70;;;4.00;;
58152;SDS011;43967;51.634;5.566;2023-09-07T00:49:12;15.35;;;4.15;;
58152;SDS011;43967;51.634;5.566;2023-09-07T00:54:33;8.05;;;3.67;;
58152;SDS011;43967;51.634;5.566;2023-09-07T00:59:55;8.93;;;4.00;;
58152;SDS011;43967;51.634;5.566;2023-09-07T01:05:16;8.07;;;3.33;;
58152;SDS011;43967;51.634;5.566;2023-09-07T01:10:37;7.30;;;3.60;;
58152;SDS011;43967;51.634;5.566;2023-09-07T01:15:58;7.55;;;3.55;;
58152;SDS011;43967;51.634;5.566;2023-09-07T01:21:20;7.47;;;3.43;;
58152;SDS011;43967;51.634;5.566;2023-09-07T01:26:43;7.50;;;3.38;;
58152;SDS011;43967;51.634;5.566;2023-09-07T01:32:04;7.72;;;3.40;;
58152;SDS011;43967;51.634;5.566;2023-09-07T01:37:26;7.17;;;3.50;;
58152;SDS011;43967;51.634;5.566;2023-09-07T01:42:47;7.45;;;3.65;;
58152;SDS011;43967;51.634;5.566;2023-09-07T01:48:11;7.57;;;3.30;;
58152;SDS011;43967;51.634;5.566;2023-09-07T01:53:34;8.40;;;3.80;;
58152;SDS011;43967;51.634;5.566;2023-09-07T01:58:56;8.40;;;3.50;;
58152;SDS011;43967;51.634;5.566;2023-09-07T02:04:17;8.32;;;3.42;;
58152;SDS011;43967;51.634;5.566;2023-09-07T02:09:38;7.30;;;3.38;;
58152;SDS011;43967;51.634;5.566;2023-09-07T02:15:01;7.43;;;3.50;;
58152;SDS011;43967;51.634;5.566;2023-09-07T02:20:24;8.10;;;3.80;;
58152;SDS011;43967;51.634;5.566;2023-09-07T02:25:45;7.22;;;3.30;;
58152;SDS011;43967;51.634;5.566;2023-09-07T02:31:06;8.30;;;3.37;;
58152;SDS011;43967;51.634;5.566;2023-09-07T02:36:27;7.60;;;3.50;;
58152;SDS011;43967;51.634;5.566;2023-09-07T02:41:49;7.45;;;3.50;;
58152;SDS011;43967;51.634;5.566;2023-09-07T02:47:10;7.40;;;3.40;;
58152;SDS011;43967;51.634;5.566;2023-09-07T02:52:31;7.17;;;3.37;;
58152;SDS011;43967;51.634;5.566;2023-09-07T02:57:52;8.00;;;3.88;;
58152;SDS011;43967;51.634;5.566;2023-09-07T03:03:14;7.03;;;3.42;;
58152;SDS011;43967;51.634;5.566;2023-09-07T03:08:35;8.37;;;3.60;;
58152;SDS011;43967;51.634;5.566;2023-09-07T03:13:56;8.13;;;3.63;;
58152;SDS011;43967;51.634;5.566;2023-09-07T03:19:18;7.10;;;3.30;;
58152;SDS011;43967;51.634;5.566;2023-09-07T03:24:39;7.40;;;3.60;;
58152;SDS011;43967;51.634;5.566;2023-09-07T03:30:01;8.05;;;3.42;;
58152;SDS011;43967;51.634;5.566;2023-09-07T03:35:22;7.18;;;3.33;;
58152;SDS011;43967;51.634;5.566;2023-09-07T03:40:44;7.27;;;3.43;;
58152;SDS011;43967;51.634;5.566;2023-09-07T03:46:05;7.43;;;3.50;;
58152;SDS011;43967;51.634;5.566;2023-09-07T03:51:26;8.55;;;3.90;;
58152;SDS011;43967;51.634;5.566;2023-09-07T03:56:48;6.63;;;2.90;;
58152;SDS011;43967;51.634;5.566;2023-09-07T04:02:09;7.53;;;3.73;;
58152;SDS011;43967;51.634;5.566;2023-09-07T04:07:30;7.25;;;3.60;;
58152;SDS011;43967;51.634;5.566;2023-09-07T04:12:52;7.00;;;3.05;;
58152;SDS011;43967;51.634;5.566;2023-09-07T04:18:13;7.77;;;3.67;;
58152;SDS011;43967;51.634;5.566;2023-09-07T04:23:35;7.80;;;3.75;;
58152;SDS011;43967;51.634;5.566;2023-09-07T04:28:56;7.45;;;3.80;;
58152;SDS011;43967;51.634;5.566;2023-09-07T04:34:18;8.40;;;3.83;;
58152;SDS011;43967;51.634;5.566;2023-09-07T04:39:39;7.23;;;3.30;;
58152;SDS011;43967;51.634;5.566;2023-09-07T04:45:00;7.50;;;3.13;;
58152;SDS011;43967;51.634;5.566;2023-09-07T04:50:22;7.75;;;4.10;;
58152;SDS011;43967;51.634;5.566;2023-09-07T04:55:44;7.50;;;3.60;;
58152;SDS011;43967;51.634;5.566;2023-09-07T05:01:06;8.18;;;4.07;;
58152;SDS011;43967;51.634;5.566;2023-09-07T05:06:28;8.13;;;3.88;;
58152;SDS011;43967;51.634;5.566;2023-09-07T05:11:50;8.60;;;4.40;;
58152;SDS011;43967;51.634;5.566;2023-09-07T05:17:11;8.48;;;4.00;;
58152;SDS011;43967;51.634;5.566;2023-09-07T05:22:32;8.38;;;4.30;;
58152;SDS011;43967;51.634;5.566;2023-09-07T05:27:54;8.10;;;4.43;;
58152;SDS011;43967;51.634;5.566;2023-09-07T05:33:15;8.77;;;4.00;;
58152;SDS011;43967;51.634;5.566;2023-09-07T05:38:37;8.82;;;4.60;;
58152;SDS011;43967;51.634;5.566;2023-09-07T05:43:59;9.18;;;4.57;;
58152;SDS011;43967;51.634;5.566;2023-09-07T05:49:20;8.57;;;4.57;;
58152;SDS011;43967;51.634;5.566;2023-09-07T05:54:41;9.00;;;4.75;;
58152;SDS011;43967;51.634;5.566;2023-09-07T06:00:02;8.75;;;4.50;;
58152;SDS011;43967;51.634;5.566;2023-09-07T06:05:24;9.33;;;4.73;;
58152;SDS011;43967;51.634;5.566;2023-09-07T06:10:45;8.57;;;4.50;;
58152;SDS011;43967;51.634;5.566;2023-09-07T06:16:07;9.80;;;4.60;;
58152;SDS011;43967;51.634;5.566;2023-09-07T06:21:28;9.57;;;4.80;;
58152;SDS011;43967;51.634;5.566;2023-09-07T06:26:49;10.77;;;4.83;;
58152;SDS011;43967;51.634;5.566;2023-09-07T06:32:11;9.48;;;4.53;;
58152;SDS011;43967;51.634;5.566;2023-09-07T06:37:32;8.88;;;3.88;;
58152;SDS011;43967;51.634;5.566;2023-09-07T06:42:53;9.07;;;4.50;;
58152;SDS011;43967;51.634;5.566;2023-09-07T06:48:14;9.35;;;4.68;;
58152;SDS011;43967;51.634;5.566;2023-09-07T06:53:36;8.25;;;4.25;;
58152;SDS011;43967;51.634;5.566;2023-09-07T06:58:57;8.90;;;4.03;;
58152;SDS011;43967;51.634;5.566;2023-09-07T07:04:18;8.95;;;4.68;;
58152;SDS011;43967;51.634;5.566;2023-09-07T07:09:39;10.10;;;4.55;;
58152;SDS011;43967;51.634;5.566;2023-09-07T07:15:01;8.10;;;3.97;;
58152;SDS011;43967;51.634;5.566;2023-09-07T07:20:22;9.00;;;4.23;;
58152;SDS011;43967;51.634;5.566;2023-09-07T07:25:44;7.97;;;3.95;;
58152;SDS011;43967;51.634;5.566;2023-09-07T07:31:08;8.85;;;4.05;;
58152;SDS011;43967;51.634;5.566;2023-09-07T07:36:30;8.40;;;4.07;;
58152;SDS011;43967;51.634;5.566;2023-09-07T07:41:52;8.27;;;4.28;;
58152;SDS011;43967;51.634;5.566;2023-09-07T07:47:13;7.97;;;4.20;;
58152;SDS011;43967;51.634;5.566;2023-09-07T07:52:34;7.90;;;3.83;;
58152;SDS011;43967;51.634;5.566;2023-09-07T07:57:55;8.13;;;3.35;;
58152;SDS011;43967;51.634;5.566;2023-09-07T08:03:17;8.13;;;4.15;;
58152;SDS011;43967;51.634;5.566;2023-09-07T08:08:39;8.10;;;4.00;;
58152;SDS011;43967;51.634;5.566;2023-09-07T08:14:00;8.20;;;4.07;;
58152;SDS011;43967;51.634;5.566;2023-09-07T08:19:21;8.18;;;3.83;;
58152;SDS011;43967;51.634;5.566;2023-09-07T08:24:42;8.50;;;4.25;;
58152;SDS011;43967;51.634;5.566;2023-09-07T08:30:04;7.63;;;3.60;;
58152;SDS011;43967;51.634;5.566;2023-09-07T08:35:25;8.20;;;3.85;;
58152;SDS011;43967;51.634;5.566;2023-09-07T08:40:47;7.53;;;3.88;;
58152;SDS011;43967;51.634;5.566;2023-09-07T08:46:13;7.67;;;4.07;;
58152;SDS011;43967;51.634;5.566;2023-09-07T08:51:35;8.73;;;3.97;;
58152;SDS011;43967;51.634;5.566;2023-09-07T08:56:57;7.07;;;3.20;;
58152;SDS011;43967;51.634;5.566;2023-09-07T09:02:18;7.83;;;4.03;;
58152;SDS011;43967;51.634;5.566;2023-09-07T09:07:40;7.60;;;3.60;;
58152;SDS011;43967;51.634;5.566;2023-09-07T09:13:01;7.47;;;3.47;;
58152;SDS011;43967;51.634;5.566;2023-09-07T09:18:22;8.27;;;3.80;;
58152;SDS011;43967;51.634;5.566;2023-09-07T09:23:44;8.27;;;3.87;;
58152;SDS011;43967;51.634;5.566;2023-09-07T09:29:05;7.60;;;4.00;;
58152;SDS011;43967;51.634;5.566;2023-09-07T09:34:26;7.55;;;3.50;;
58152;SDS011;43967;51.634;5.566;2023-09-07T09:39:52;7.57;;;3.60;;
58152;SDS011;43967;51.634;5.566;2023-09-07T09:45:16;7.53;;;3.60;;
58152;SDS011;43967;51.634;5.566;2023-09-07T09:50:37;8.95;;;3.85;;
58152;SDS011;43967;51.634;5.566;2023-09-07T09:56:01;7.90;;;4.20;;
58152;SDS011;43967;51.634;5.566;2023-09-07T10:01:22;7.07;;;3.53;;
58152;SDS011;43967;51.634;5.566;2023-09-07T10:06:50;7.95;;;3.90;;
58152;SDS011;43967;51.634;5.566;2023-09-07T10:12:14;7.40;;;3.63;;
58152;SDS011;43967;51.634;5.566;2023-09-07T10:17:35;7.50;;;3.40;;
58152;SDS011;43967;51.634;5.566;2023-09-07T10:23:03;7.35;;;3.78;;
58152;SDS011;43967;51.634;5.566;2023-09-07T10:28:25;7.32;;;3.45;;
58152;SDS011;43967;51.634;5.566;2023-09-07T10:33:46;7.90;;;3.47;;
58152;SDS011;43967;51.634;5.566;2023-09-07T10:39:08;8.52;;;3.70;;
58152;SDS011;43967;51.634;5.566;2023-09-07T10:44:29;7.65;;;3.30;;
58152;SDS011;43967;51.634;5.566;2023-09-07T10:49:51;8.00;;;4.00;;
58152;SDS011;43967;51.634;5.566;2023-09-07T10:55:12;8.43;;;3.57;;
58152;SDS011;43967;51.634;5.566;2023-09-07T11:00:33;6.88;;;3.70;;
58152;SDS011;43967;51.634;5.566;2023-09-07T11:05:59;8.18;;;3.55;;
58152;SDS011;43967;51.634;5.566;2023-09-07T11:11:27;7.30;;;3.47;;
58152;SDS011;43967;51.634;5.566;2023-09-07T11:16:48;7.70;;;3.92;;
58152;SDS011;43967;51.634;5.566;2023-09-07T11:22:10;7.40;;;3.63;;
58152;SDS011;43967;51.634;5.566;2023-09-07T11:27:32;7.10;;;3.40;;
58152;SDS011;43967;51.634;5.566;2023-09-07T11:33:00;7.30;;;3.25;;
58152;SDS011;43967;51.634;5.566;2023-09-07T11:38:35;6.85;;;3.15;;
58152;SDS011;43967;51.634;5.566;2023-09-07T11:43:57;7.00;;;3.37;;
58152;SDS011;43967;51.634;5.566;2023-09-07T11:49:18;7.03;;;3.50;;
58152;SDS011;43967;51.634;5.566;2023-09-07T11:54:39;7.78;;;3.38;;
58152;SDS011;43967;51.634;5.566;2023-09-07T12:00:01;7.20;;;3.53;;
58152;SDS011;43967;51.634;5.566;2023-09-07T12:05:22;6.80;;;3.10;;
58152;SDS011;43967;51.634;5.566;2023-09-07T12:10:43;7.20;;;3.22;;
58152;SDS011;43967;51.634;5.566;2023-09-07T12:16:05;7.40;;;3.40;;
58152;SDS011;43967;51.634;5.566;2023-09-07T12:21:26;7.23;;;3.43;;
58152;SDS011;43967;51.634;5.566;2023-09-07T12:26:47;7.32;;;3.60;;
58152;SDS011;43967;51.634;5.566;2023-09-07T12:32:08;6.80;;;2.83;;
58152;SDS011;43967;51.634;5.566;2023-09-07T12:37:30;7.23;;;3.30;;
58152;SDS011;43967;51.634;5.566;2023-09-07T12:42:51;7.70;;;3.87;;
58152;SDS011;43967;51.634;5.566;2023-09-07T12:48:12;7.78;;;3.70;;
58152;SDS011;43967;51.634;5.566;2023-09-07T12:53:34;7.40;;;3.50;;
58152;SDS011;43967;51.634;5.566;2023-09-07T12:58:55;8.27;;;3.33;;
58152;SDS011;43967;51.634;5.566;2023-09-07T13:04:16;7.38;;;3.40;;
58152;SDS011;43967;51.634;5.566;2023-09-07T13:09:37;6.78;;;3.47;;
58152;SDS011;43967;51.634;5.566;2023-09-07T13:14:59;6.80;;;3.50;;
58152;SDS011;43967;51.634;5.566;2023-09-07T13:20:20;7.43;;;3.50;;
58152;SDS011;43967;51.634;5.566;2023-09-07T13:25:41;7.38;;;3.22;;
58152;SDS011;43967;51.634;5.566;2023-09-07T13:31:03;7.17;;;3.40;;
58152;SDS011;43967;51.634;5.566;2023-09-07T13:36:24;7.60;;;3.37;;
58152;SDS011;43967;51.634;5.566;2023-09-07T13:41:45;7.45;;;3.63;;
58152;SDS011;43967;51.634;5.566;2023-09-07T13:47:06;7.28;;;3.88;;
58152;SDS011;43967;51.634;5.566;2023-09-07T13:52:28;6.93;;;3.00;;
58152;SDS011;43967;51.634;5.566;2023-09-07T13:57:49;7.38;;;3.35;;
58152;SDS011;43967;51.634;5.566;2023-09-07T14:03:10;7.50;;;3.45;;
58152;SDS011;43967;51.634;5.566;2023-09-07T14:08:32;7.07;;;3.40;;
58152;SDS011;43967;51.634;5.566;2023-09-07T14:13:53;7.18;;;3.40;;
58152;SDS011;43967;51.634;5.566;2023-09-07T14:19:14;7.25;;;3.05;;
58152;SDS011;43967;51.634;5.566;2023-09-07T14:24:35;7.00;;;3.10;;
58152;SDS011;43967;51.634;5.566;2023-09-07T14:29:57;7.17;;;3.20;;
58152;SDS011;43967;51.634;5.566;2023-09-07T14:35:18;7.03;;;3.20;;
58152;SDS011;43967;51.634;5.566;2023-09-07T14:40:39;7.53;;;3.40;;
58152;SDS011;43967;51.634;5.566;2023-09-07T14:46:00;7.13;;;3.27;;
58152;SDS011;43967;51.634;5.566;2023-09-07T14:51:22;7.15;;;3.55;;
58152;SDS011;43967;51.634;5.566;2023-09-07T14:56:43;6.50;;;2.92;;
58152;SDS011;43967;51.634;5.566;2023-09-07T15:02:05;7.47;;;3.50;;
58152;SDS011;43967;51.634;5.566;2023-09-07T15:07:26;6.80;;;3.35;;
58152;SDS011;43967;51.634;5.566;2023-09-07T15:12:48;6.75;;;3.25;;
58152;SDS011;43967;51.634;5.566;2023-09-07T15:18:09;6.60;;;3.13;;
58152;SDS011;43967;51.634;5.566;2023-09-07T15:23:31;7.00;;;3.20;;
58152;SDS011;43967;51.634;5.566;2023-09-07T15:28:52;7.32;;;3.60;;
58152;SDS011;43967;51.634;5.566;2023-09-07T15:34:13;7.40;;;3.35;;
58152;SDS011;43967;51.634;5.566;2023-09-07T15:39:35;7.27;;;3.47;;
58152;SDS011;43967;51.634;5.566;2023-09-07T15:44:56;6.78;;;3.35;;
58152;SDS011;43967;51.634;5.566;2023-09-07T15:50:17;6.90;;;3.20;;
58152;SDS011;43967;51.634;5.566;2023-09-07T15:55:39;7.00;;;3.43;;
58152;SDS011;43967;51.634;5.566;2023-09-07T16:01:00;6.88;;;3.22;;
58152;SDS011;43967;51.634;5.566;2023-09-07T16:06:21;7.30;;;3.40;;
58152;SDS011;43967;51.634;5.566;2023-09-07T16:11:43;7.00;;;3.40;;
58152;SDS011;43967;51.634;5.566;2023-09-07T16:17:04;7.23;;;3.57;;
58152;SDS011;43967;51.634;5.566;2023-09-07T16:22:26;6.70;;;3.40;;
58152;SDS011;43967;51.634;5.566;2023-09-07T16:27:48;6.70;;;3.17;;
58152;SDS011;43967;51.634;5.566;2023-09-07T16:33:09;6.97;;;3.13;;
58152;SDS011;43967;51.634;5.566;2023-09-07T16:38:30;6.60;;;3.20;;
58152;SDS011;43967;51.634;5.566;2023-09-07T16:43:52;6.60;;;3.10;;
58152;SDS011;43967;51.634;5.566;2023-09-07T16:49:13;6.53;;;3.17;;
58152;SDS011;43967;51.634;5.566;2023-09-07T16:54:35;6.65;;;3.20;;
58152;SDS011;43967;51.634;5.566;2023-09-07T16:59:57;6.60;;;3.10;;
58152;SDS011;43967;51.634;5.566;2023-09-07T17:05:18;6.90;;;3.10;;
58152;SDS011;43967;51.634;5.566;2023-09-07T17:10:41;6.93;;;3.50;;
58152;SDS011;43967;51.634;5.566;2023-09-07T17:16:02;6.90;;;3.40;;
58152;SDS011;43967;51.634;5.566;2023-09-07T17:21:23;7.00;;;3.50;;
58152;SDS011;43967;51.634;5.566;2023-09-07T17:26:45;6.80;;;3.13;;
58152;SDS011;43967;51.634;5.566;2023-09-07T17:32:06;7.20;;;3.10;;
58152;SDS011;43967;51.634;5.566;2023-09-07T17:37:27;6.85;;;3.40;;
58152;SDS011;43967;51.634;5.566;2023-09-07T17:42:49;6.97;;;3.40;;
58152;SDS011;43967;51.634;5.566;2023-09-07T17:48:10;6.80;;;3.15;;
58152;SDS011;43967;51.634;5.566;2023-09-07T17:53:32;7.78;;;3.40;;
58152;SDS011;43967;51.634;5.566;2023-09-07T17:58:54;6.70;;;3.30;;
58152;SDS011;43967;51.634;5.566;2023-09-07T18:04:16;6.60;;;3.03;;
58152;SDS011;43967;51.634;5.566;2023-09-07T18:09:37;6.75;;;3.10;;
58152;SDS011;43967;51.634;5.566;2023-09-07T18:14:58;6.65;;;3.38;;
58152;SDS011;43967;51.634;5.566;2023-09-07T18:20:19;7.93;;;3.40;;
58152;SDS011;43967;51.634;5.566;2023-09-07T18:25:41;7.25;;;3.20;;
58152;SDS011;43967;51.634;5.566;2023-09-07T18:31:06;7.47;;;3.42;;
58152;SDS011;43967;51.634;5.566;2023-09-07T18:36:31;7.97;;;3.63;;
58152;SDS011;43967;51.634;5.566;2023-09-07T18:41:52;7.38;;;3.58;;
58152;SDS011;43967;51.634;5.566;2023-09-07T18:47:13;8.68;;;4.22;;
58152;SDS011;43967;51.634;5.566;2023-09-07T18:52:35;9.07;;;4.07;;
58152;SDS011;43967;51.634;5.566;2023-09-07T18:57:57;8.67;;;4.47;;
58152;SDS011;43967;51.634;5.566;2023-09-07T19:03:18;10.00;;;4.60;;
58152;SDS011;43967;51.634;5.566;2023-09-07T19:08:39;9.77;;;5.20;;
58152;SDS011;43967;51.634;5.566;2023-09-07T19:14:01;12.43;;;5.97;;
58152;SDS011;43967;51.634;5.566;2023-09-07T19:19:24;13.63;;;7.97;;
58152;SDS011;43967;51.634;5.566;2023-09-07T19:24:45;12.82;;;7.30;;
58152;SDS011;43967;51.634;5.566;2023-09-07T19:30:06;13.60;;;7.90;;
58152;SDS011;43967;51.634;5.566;2023-09-07T19:35:28;12.35;;;7.47;;
58152;SDS011;43967;51.634;5.566;2023-09-07T19:40:49;11.63;;;6.88;;
58152;SDS011;43967;51.634;5.566;2023-09-07T19:46:11;11.40;;;6.60;;
58152;SDS011;43967;51.634;5.566;2023-09-07T19:51:34;13.37;;;6.67;;
58152;SDS011;43967;51.634;5.566;2023-09-07T19:56:55;12.95;;;7.38;;
58152;SDS011;43967;51.634;5.566;2023-09-07T20:02:16;12.88;;;7.55;;
58152;SDS011;43967;51.634;5.566;2023-09-07T20:07:37;11.90;;;6.30;;
58152;SDS011;43967;51.634;5.566;2023-09-07T20:12:59;11.85;;;7.53;;
58152;SDS011;43967;51.634;5.566;2023-09-07T20:18:20;11.68;;;7.13;;
58152;SDS011;43967;51.634;5.566;2023-09-07T20:23:41;13.80;;;8.17;;
58152;SDS011;43967;51.634;5.566;2023-09-07T20:29:03;12.75;;;7.53;;
58152;SDS011;43967;51.634;5.566;2023-09-07T20:34:24;11.85;;;7.53;;
58152;SDS011;43967;51.634;5.566;2023-09-07T20:39:45;13.37;;;7.87;;
58152;SDS011;43967;51.634;5.566;2023-09-07T20:45:07;12.63;;;7.80;;
58152;SDS011;43967;51.634;5.566;2023-09-07T20:50:28;12.63;;;7.65;;
58152;SDS011;43967;51.634;5.566;2023-09-07T20:55:50;11.88;;;7.50;;
58152;SDS011;43967;51.634;5.566;2023-09-07T21:01:11;10.67;;;6.43;;
58152;SDS011;43967;51.634;5.566;2023-09-07T21:06:32;13.25;;;7.28;;
58152;SDS011;43967;51.634;5.566;2023-09-07T21:11:53;10.82;;;6.30;;
58152;SDS011;43967;51.634;5.566;2023-09-07T21:17:15;11.43;;;6.90;;
58152;SDS011;43967;51.634;5.566;2023-09-07T21:22:36;10.98;;;6.35;;
58152;SDS011;43967;51.634;5.566;2023-09-07T21:27:58;11.45;;;5.90;;
58152;SDS011;43967;51.634;5.566;2023-09-07T21:33:22;10.67;;;6.33;;
58152;SDS011;43967;51.634;5.566;2023-09-07T21:38:43;11.57;;;6.97;;
58152;SDS011;43967;51.634;5.566;2023-09-07T21:44:05;11.88;;;6.68;;
58152;SDS011;43967;51.634;5.566;2023-09-07T21:49:26;10.48;;;6.60;;
58152;SDS011;43967;51.634;5.566;2023-09-07T21:54:47;10.47;;;6.27;;
58152;SDS011;43967;51.634;5.566;2023-09-07T22:00:09;10.80;;;6.05;;
58152;SDS011;43967;51.634;5.566;2023-09-07T22:05:30;11.45;;;5.78;;
58152;SDS011;43967;51.634;5.566;2023-09-07T22:10:51;10.33;;;6.43;;
58152;SDS011;43967;51.634;5.566;2023-09-07T22:16:13;11.10;;;6.30;;
58152;SDS011;43967;51.634;5.566;2023-09-07T22:21:34;11.27;;;6.72;;
58152;SDS011;43967;51.634;5.566;2023-09-07T22:26:55;11.07;;;5.77;;
58152;SDS011;43967;51.634;5.566;2023-09-07T22:32:17;9.87;;;5.97;;
58152;SDS011;43967;51.634;5.566;2023-09-07T22:37:38;10.50;;;5.95;;
58152;SDS011;43967;51.634;5.566;2023-09-07T22:43:00;10.82;;;5.88;;
58152;SDS011;43967;51.634;5.566;2023-09-07T22:48:24;10.30;;;5.67;;
58152;SDS011;43967;51.634;5.566;2023-09-07T22:53:45;10.40;;;6.40;;
58152;SDS011;43967;51.634;5.566;2023-09-07T22:59:06;11.15;;;6.00;;
58152;SDS011;43967;51.634;5.566;2023-09-07T23:04:27;10.77;;;5.80;;
58152;SDS011;43967;51.634;5.566;2023-09-07T23:09:49;10.70;;;5.43;;
58152;SDS011;43967;51.634;5.566;2023-09-07T23:15:10;9.95;;;5.93;;
58152;SDS011;43967;51.634;5.566;2023-09-07T23:20:31;10.30;;;5.67;;
58152;SDS011;43967;51.634;5.566;2023-09-07T23:25:53;10.33;;;6.40;;
58152;SDS011;43967;51.634;5.566;2023-09-07T23:31:14;9.95;;;6.00;;
58152;SDS011;43967;51.634;5.566;2023-09-07T23:36:36;9.80;;;6.15;;
58152;SDS011;43967;51.634;5.566;2023-09-07T23:41:57;9.83;;;5.73;;
58152;SDS011;43967;51.634;5.566;2023-09-07T23:47:19;10.38;;;5.47;;
58152;SDS011;43967;51.634;5.566;2023-09-07T23:52:40;9.63;;;5.28;;
58152;SDS011;43967;51.634;5.566;2023-09-07T23:58:01;9.30;;;5.10;;
